createdAt,value
2023-05-23T00:01:17.274Z,8.40
2023-05-23T00:02:39.658Z,8.52
2023-05-23T00:04:05.480Z,8.55
2023-05-23T00:05:29.333Z,7.57
2023-05-23T00:06:53.657Z,8.05
2023-05-23T00:08:16.446Z,7.93
2023-05-23T00:09:40.817Z,8.45
2023-05-23T00:11:03.128Z,7.85
2023-05-23T00:12:24.330Z,7.72
2023-05-23T00:13:46.754Z,8.73
2023-05-23T00:15:10.367Z,8.65
2023-05-23T00:16:31.447Z,7.85
2023-05-23T00:17:56.058Z,8.57
2023-05-23T00:19:30.747Z,7.78
2023-05-23T00:20:53.809Z,8.50
2023-05-23T00:22:19.082Z,7.78
2023-05-23T00:23:42.640Z,7.80
2023-05-23T00:25:04.736Z,8.10
2023-05-23T00:26:30.131Z,9.00
2023-05-23T00:27:51.648Z,8.25
2023-05-23T00:29:19.461Z,7.78
2023-05-23T00:30:40.677Z,8.30
2023-05-23T00:32:02.952Z,7.88
2023-05-23T00:33:24.131Z,9.10
2023-05-23T00:34:48.471Z,8.18
2023-05-23T00:36:10.905Z,8.57
2023-05-23T00:37:32.701Z,7.90
2023-05-23T00:38:55.881Z,7.78
2023-05-23T00:40:17.923Z,7.72
2023-05-23T00:41:40.247Z,9.00
2023-05-23T00:43:02.845Z,8.05
2023-05-23T00:44:24.199Z,8.35
2023-05-23T00:45:46.378Z,7.82
2023-05-23T00:47:09.832Z,8.65
2023-05-23T00:48:30.977Z,8.45
2023-05-23T00:49:54.933Z,8.75
2023-05-23T00:51:16.322Z,8.68
2023-05-23T00:52:38.915Z,9.70
2023-05-23T00:54:01.562Z,8.60
2023-05-23T00:55:24.820Z,8.13
2023-05-23T00:56:47.072Z,8.00
2023-05-23T00:59:33.522Z,7.80
2023-05-23T01:00:55.881Z,8.15
2023-05-23T01:02:18.381Z,8.20
2023-05-23T01:03:40.865Z,8.98
2023-05-23T01:05:04.133Z,8.02
2023-05-23T01:06:26.759Z,8.88
2023-05-23T01:07:49.266Z,8.00
2023-05-23T01:09:11.417Z,7.70
2023-05-23T01:10:33.886Z,8.02
2023-05-23T01:12:04.347Z,7.32
2023-05-23T01:13:32.978Z,7.88
2023-05-23T01:15:01.599Z,8.60
2023-05-23T01:16:34.228Z,8.40
2023-05-23T01:18:04.305Z,7.55
2023-05-23T01:19:50.502Z,7.97
2023-05-23T01:21:18.950Z,7.82
2023-05-23T01:23:01.723Z,8.02
2023-05-23T01:24:36.736Z,7.63
2023-05-23T01:26:19.847Z,7.93
2023-05-23T01:27:52.697Z,7.38
2023-05-23T01:29:19.771Z,8.07
2023-05-23T01:30:44.372Z,8.02
2023-05-23T01:32:12.477Z,7.78
2023-05-23T01:33:35.686Z,7.50
2023-05-23T01:34:59.656Z,7.55
2023-05-23T01:36:23.157Z,8.15
2023-05-23T01:37:47.585Z,7.80
2023-05-23T01:39:09.178Z,7.90
2023-05-23T01:40:31.507Z,7.95
2023-05-23T01:41:54.139Z,8.00
2023-05-23T01:43:17.653Z,7.75
2023-05-23T01:44:39.928Z,7.85
2023-05-23T01:46:11.925Z,7.55
2023-05-23T01:47:34.408Z,7.60
2023-05-23T01:50:21.387Z,8.10
2023-05-23T01:51:44.181Z,7.90
2023-05-23T01:53:11.376Z,7.05
2023-05-23T01:54:35.663Z,7.82
2023-05-23T01:55:58.488Z,7.43
2023-05-23T01:57:20.749Z,9.13
2023-05-23T01:58:44.948Z,7.13
2023-05-23T02:00:07.734Z,8.32
2023-05-23T02:01:35.881Z,7.30
2023-05-23T02:02:57.981Z,7.30
2023-05-23T02:04:20.929Z,7.75
2023-05-23T02:05:42.420Z,8.13
2023-05-23T02:08:26.056Z,7.80
2023-05-23T02:09:48.610Z,7.28
2023-05-23T02:11:13.855Z,8.32
2023-05-23T02:12:36.307Z,7.93
2023-05-23T02:13:59.882Z,7.45
2023-05-23T02:15:21.925Z,7.97
2023-05-23T02:16:43.915Z,7.90
2023-05-23T02:18:06.727Z,8.68
2023-05-23T02:19:28.842Z,7.78
2023-05-23T02:20:51.711Z,7.95
2023-05-23T02:22:13.826Z,8.48
2023-05-23T02:23:39.063Z,8.00
2023-05-23T02:25:01.210Z,8.45
2023-05-23T02:26:23.385Z,7.90
2023-05-23T02:27:44.514Z,7.70
2023-05-23T02:29:08.229Z,7.55
2023-05-23T02:30:30.255Z,7.65
2023-05-23T02:31:51.312Z,7.88
2023-05-23T02:33:13.395Z,8.85
2023-05-23T02:34:34.964Z,8.73
2023-05-23T02:35:57.070Z,8.13
2023-05-23T02:37:19.314Z,8.25
2023-05-23T02:38:41.646Z,7.57
2023-05-23T02:40:07.716Z,8.27
2023-05-23T02:41:30.189Z,8.55
2023-05-23T02:42:52.866Z,8.40
2023-05-23T02:44:16.836Z,7.68
2023-05-23T02:45:39.264Z,9.07
2023-05-23T02:47:00.647Z,8.50
2023-05-23T02:48:25.485Z,8.18
2023-05-23T02:49:48.133Z,8.45
2023-05-23T02:51:09.364Z,8.48
2023-05-23T02:52:31.584Z,8.13
2023-05-23T02:53:52.846Z,8.23
2023-05-23T02:55:15.083Z,8.13
2023-05-23T02:56:40.483Z,8.32
2023-05-23T02:58:06.025Z,9.02
2023-05-23T02:59:29.820Z,8.48
2023-05-23T03:00:53.904Z,8.35
2023-05-23T03:02:16.064Z,8.32
2023-05-23T03:03:37.486Z,8.95
2023-05-23T03:04:59.681Z,8.82
2023-05-23T03:06:22.731Z,8.63
2023-05-23T03:07:44.925Z,8.15
2023-05-23T03:09:06.433Z,8.48
2023-05-23T03:10:28.582Z,9.13
2023-05-23T03:11:50.075Z,7.88
2023-05-23T03:13:12.809Z,8.55
2023-05-23T03:14:35.896Z,7.93
2023-05-23T03:15:58.606Z,8.93
2023-05-23T03:17:20.033Z,8.93
2023-05-23T03:18:42.883Z,7.80
2023-05-23T03:20:05.979Z,8.98
2023-05-23T03:21:28.175Z,8.48
2023-05-23T03:22:50.210Z,8.02
2023-05-23T03:24:12.760Z,8.65
2023-05-23T03:25:33.861Z,8.10
2023-05-23T03:26:55.948Z,8.02
2023-05-23T03:28:18.402Z,8.90
2023-05-23T03:29:42.372Z,7.78
2023-05-23T03:31:05.930Z,9.10
2023-05-23T03:32:28.487Z,8.10
2023-05-23T03:33:49.811Z,8.55
2023-05-23T03:35:12.810Z,8.65
2023-05-23T03:36:35.944Z,8.50
2023-05-23T03:37:58.792Z,8.70
2023-05-23T03:39:19.785Z,9.57
2023-05-23T03:40:42.126Z,9.40
2023-05-23T03:42:03.199Z,9.85
2023-05-23T03:43:25.697Z,9.10
2023-05-23T03:44:49.002Z,9.05
2023-05-23T03:46:11.766Z,9.20
2023-05-23T03:47:33.923Z,9.77
2023-05-23T03:48:56.036Z,8.93
2023-05-23T03:50:18.956Z,8.90
2023-05-23T03:51:41.704Z,9.52
2023-05-23T03:53:03.249Z,9.50
2023-05-23T03:54:25.626Z,9.32
2023-05-23T03:55:46.916Z,9.15
2023-05-23T03:57:09.074Z,9.68
2023-05-23T03:58:31.472Z,9.23
2023-05-23T03:59:59.018Z,9.32
2023-05-23T04:01:21.875Z,9.00
2023-05-23T04:02:44.717Z,9.60
2023-05-23T04:04:09.737Z,9.15
2023-05-23T04:05:32.084Z,9.23
2023-05-23T04:06:56.018Z,9.00
2023-05-23T04:08:22.231Z,9.45
2023-05-23T04:09:46.453Z,9.15
2023-05-23T04:11:08.765Z,9.27
2023-05-23T04:12:33.258Z,9.93
2023-05-23T04:13:55.174Z,8.75
2023-05-23T04:15:21.728Z,8.90
2023-05-23T04:16:53.132Z,9.80
2023-05-23T04:18:17.597Z,9.07
2023-05-23T04:19:38.859Z,10.10
2023-05-23T04:21:01.438Z,9.68
2023-05-23T04:22:23.903Z,9.00
2023-05-23T04:23:46.266Z,10.30
2023-05-23T04:25:09.734Z,9.10
2023-05-23T04:26:39.686Z,10.32
2023-05-23T04:28:02.437Z,9.65
2023-05-23T04:29:26.406Z,9.32
2023-05-23T04:30:51.610Z,10.05
2023-05-23T04:32:19.592Z,10.10
2023-05-23T04:33:42.000Z,8.98
2023-05-23T04:35:04.409Z,9.70
2023-05-23T04:36:33.087Z,9.48
2023-05-23T04:37:56.876Z,9.55
2023-05-23T04:39:22.211Z,9.77
2023-05-23T04:41:04.234Z,8.60
2023-05-23T04:42:46.323Z,10.35
2023-05-23T04:44:21.301Z,9.43
2023-05-23T04:46:04.666Z,9.93
2023-05-23T04:47:58.905Z,9.68
2023-05-23T04:49:30.699Z,9.52
2023-05-23T04:50:52.912Z,9.38
2023-05-23T04:52:14.550Z,9.80
2023-05-23T04:53:38.889Z,9.10
2023-05-23T04:55:01.984Z,8.50
2023-05-23T04:56:28.414Z,9.70
2023-05-23T04:57:52.614Z,8.63
2023-05-23T04:59:14.113Z,11.23
2023-05-23T05:00:36.330Z,9.68
2023-05-23T05:02:02.899Z,9.18
2023-05-23T05:03:25.371Z,9.60
2023-05-23T05:04:48.334Z,9.70
2023-05-23T05:06:14.016Z,9.50
2023-05-23T05:07:37.416Z,9.90
2023-05-23T05:09:02.059Z,9.02
2023-05-23T05:10:24.456Z,8.48
2023-05-23T05:11:54.288Z,9.38
2023-05-23T05:13:17.186Z,8.45
2023-05-23T05:14:43.946Z,8.32
2023-05-23T05:16:06.505Z,8.80
2023-05-23T05:17:31.128Z,8.90
2023-05-23T05:18:58.501Z,8.77
2023-05-23T05:20:21.906Z,8.73
2023-05-23T05:21:45.305Z,8.10
2023-05-23T05:23:09.878Z,8.80
2023-05-23T05:24:33.055Z,9.68
2023-05-23T05:25:54.052Z,8.73
2023-05-23T05:27:17.562Z,9.05
2023-05-23T05:28:41.283Z,8.70
2023-05-23T05:30:05.749Z,9.13
2023-05-23T05:31:43.646Z,9.43
2023-05-23T05:33:08.035Z,8.70
2023-05-23T05:34:31.146Z,9.20
2023-05-23T05:35:54.190Z,9.40
2023-05-23T05:37:17.536Z,10.05
2023-05-23T05:38:40.434Z,8.85
2023-05-23T05:40:06.773Z,8.77
2023-05-23T05:41:30.856Z,8.93
2023-05-23T05:42:53.083Z,8.18
2023-05-23T05:44:17.730Z,8.50
2023-05-23T05:45:41.908Z,9.43
2023-05-23T05:47:06.587Z,9.63
2023-05-23T05:48:29.217Z,8.60
2023-05-23T05:49:55.090Z,10.07
2023-05-23T05:51:17.707Z,9.43
2023-05-23T05:52:40.247Z,9.80
2023-05-23T05:54:02.685Z,9.20
2023-05-23T05:55:24.956Z,9.57
2023-05-23T05:56:48.705Z,9.50
2023-05-23T05:58:11.773Z,9.40
2023-05-23T05:59:46.206Z,9.23
2023-05-23T06:01:07.446Z,9.27
2023-05-23T06:02:32.708Z,9.02
2023-05-23T06:04:01.646Z,9.85
2023-05-23T06:05:23.581Z,9.38
2023-05-23T06:08:06.990Z,9.50
2023-05-23T06:09:32.405Z,9.60
2023-05-23T06:10:56.878Z,9.68
2023-05-23T06:12:25.223Z,9.15
2023-05-23T06:13:48.901Z,9.27
2023-05-23T06:15:16.505Z,9.07
2023-05-23T06:16:38.689Z,9.25
2023-05-23T06:18:01.302Z,10.45
2023-05-23T06:19:27.271Z,10.27
2023-05-23T06:20:50.195Z,9.63
2023-05-23T06:22:13.599Z,9.27
2023-05-23T06:23:35.581Z,10.35
2023-05-23T06:25:00.734Z,10.10
2023-05-23T06:26:22.766Z,9.65
2023-05-23T06:27:47.560Z,9.85
2023-05-23T06:29:10.391Z,10.23
2023-05-23T06:30:32.404Z,9.13
2023-05-23T06:31:54.810Z,10.02
2023-05-23T06:33:17.751Z,10.60
2023-05-23T06:34:40.148Z,9.75
2023-05-23T06:36:02.824Z,9.65
2023-05-23T06:37:33.040Z,10.25
2023-05-23T06:39:01.848Z,10.05
2023-05-23T06:40:24.266Z,9.93
2023-05-23T06:41:48.363Z,9.73
2023-05-23T06:43:11.249Z,9.90
2023-05-23T06:44:41.741Z,11.25
2023-05-23T06:46:12.779Z,9.93
2023-05-23T06:47:34.173Z,10.27
2023-05-23T06:49:13.190Z,9.20
2023-05-23T06:50:40.329Z,9.60
2023-05-23T06:53:23.162Z,9.65
2023-05-23T06:54:52.386Z,9.93
2023-05-23T06:56:24.000Z,10.27
2023-05-23T07:03:51.621Z,9.43
2023-05-23T07:06:01.475Z,9.63
2023-05-23T07:07:31.169Z,9.60
2023-05-23T07:08:55.080Z,10.45
2023-05-23T07:10:20.173Z,10.10
2023-05-23T07:11:45.164Z,9.50
2023-05-23T07:13:08.930Z,9.63
2023-05-23T07:14:31.989Z,8.57
2023-05-23T07:15:55.103Z,9.48
2023-05-23T07:17:17.865Z,9.77
2023-05-23T07:18:43.890Z,9.95
2023-05-23T07:20:08.648Z,9.23
2023-05-23T07:21:32.537Z,9.68
2023-05-23T07:22:57.696Z,8.75
2023-05-23T07:24:20.638Z,9.20
2023-05-23T07:25:53.894Z,9.73
2023-05-23T07:27:26.465Z,7.82
2023-05-23T07:28:51.135Z,8.77
2023-05-23T07:30:14.552Z,8.20
2023-05-23T07:31:37.438Z,8.32
2023-05-23T07:33:13.187Z,8.05
2023-05-23T07:34:42.225Z,8.45
2023-05-23T07:36:07.967Z,8.07
2023-05-23T07:37:30.496Z,8.23
2023-05-23T07:38:57.038Z,8.80
2023-05-23T07:40:20.193Z,8.50
2023-05-23T07:41:42.988Z,7.95
2023-05-23T07:43:05.605Z,7.90
2023-05-23T07:44:28.172Z,8.10
2023-05-23T07:45:51.252Z,7.32
2023-05-23T07:47:17.023Z,7.45
2023-05-23T07:48:43.074Z,8.00
2023-05-23T07:50:09.693Z,8.27
2023-05-23T07:51:33.116Z,7.85
2023-05-23T07:52:58.928Z,8.13
2023-05-23T07:54:27.033Z,8.50
2023-05-23T07:55:54.245Z,7.15
2023-05-23T07:57:21.845Z,7.68
2023-05-23T07:58:47.300Z,7.72
2023-05-23T08:00:12.527Z,9.07
2023-05-23T08:01:39.191Z,7.07
2023-05-23T08:03:03.657Z,7.57
2023-05-23T08:04:34.178Z,7.82
2023-05-23T08:05:59.595Z,7.00
2023-05-23T08:07:22.494Z,7.40
2023-05-23T08:08:49.373Z,7.60
2023-05-23T08:10:37.458Z,7.07
2023-05-23T08:12:08.144Z,6.88
2023-05-23T08:13:32.160Z,7.03
2023-05-23T08:16:39.532Z,7.55
2023-05-23T08:18:08.004Z,7.18
2023-05-23T08:19:31.243Z,6.18
2023-05-23T08:20:54.221Z,6.50
2023-05-23T08:22:17.535Z,7.38
2023-05-23T08:23:40.527Z,7.75
2023-05-23T08:25:03.604Z,6.85
2023-05-23T08:26:35.127Z,7.00
2023-05-23T08:28:00.864Z,7.40
2023-05-23T08:29:38.831Z,7.45
2023-05-23T08:31:02.195Z,6.72
2023-05-23T08:32:25.938Z,7.07
2023-05-23T08:33:48.472Z,7.45
2023-05-23T08:35:11.316Z,7.43
2023-05-23T08:36:40.387Z,7.38
2023-05-23T08:38:07.963Z,7.95
2023-05-23T08:39:33.104Z,7.63
2023-05-23T08:41:22.749Z,7.90
2023-05-23T08:42:49.939Z,8.63
2023-05-23T08:44:12.839Z,8.10
2023-05-23T08:45:42.837Z,7.57
2023-05-23T08:47:06.843Z,8.35
2023-05-23T08:48:51.389Z,7.82
2023-05-23T08:50:16.517Z,8.32
2023-05-23T08:51:44.630Z,8.00
2023-05-23T08:53:21.451Z,8.20
2023-05-23T08:54:49.855Z,8.82
2023-05-23T08:56:12.212Z,7.90
2023-05-23T08:57:43.804Z,8.85
2023-05-23T08:59:36.926Z,10.95
2023-05-23T09:01:01.333Z,9.88
2023-05-23T09:02:23.335Z,10.52
2023-05-23T09:03:50.601Z,9.35
2023-05-23T09:05:33.012Z,9.35
2023-05-23T09:07:01.534Z,9.82
2023-05-23T09:08:27.302Z,9.93
2023-05-23T09:09:53.594Z,10.13
2023-05-23T09:11:22.086Z,9.65
2023-05-23T09:12:45.138Z,10.05
2023-05-23T09:14:08.466Z,9.88
2023-05-23T09:15:34.545Z,10.38
2023-05-23T09:17:04.349Z,10.00
2023-05-23T09:18:28.457Z,11.23
2023-05-23T09:19:51.246Z,11.15
2023-05-23T09:21:34.010Z,11.85
2023-05-23T09:24:36.484Z,12.73
2023-05-23T09:26:04.784Z,12.98
2023-05-23T09:27:26.868Z,15.02
2023-05-23T09:28:49.436Z,14.65
2023-05-23T09:30:13.873Z,13.70
2023-05-23T09:31:38.042Z,14.30
2023-05-23T09:33:05.630Z,13.45
2023-05-23T09:34:30.354Z,13.00
2023-05-23T09:35:52.813Z,14.13
2023-05-23T09:37:19.801Z,13.15
2023-05-23T09:38:43.644Z,13.90
2023-05-23T09:40:10.639Z,14.15
2023-05-23T09:41:36.233Z,14.45
2023-05-23T09:43:07.842Z,14.10
2023-05-23T09:44:30.263Z,14.60
2023-05-23T09:45:53.868Z,16.10
2023-05-23T09:47:18.830Z,16.60
2023-05-23T09:48:40.834Z,16.27
2023-05-23T09:50:03.557Z,16.77
2023-05-23T09:51:26.390Z,15.80
2023-05-23T09:52:48.497Z,15.63
2023-05-23T09:54:11.163Z,18.10
2023-05-23T09:55:33.605Z,16.17
2023-05-23T09:56:57.687Z,16.45
2023-05-23T09:58:25.351Z,20.02
2023-05-23T09:59:54.004Z,19.17
2023-05-23T10:01:17.241Z,23.00
2023-05-23T10:03:00.022Z,23.13
2023-05-23T10:04:23.885Z,18.70
2023-05-23T10:05:48.588Z,19.23
2023-05-23T10:07:18.585Z,17.92
2023-05-23T10:08:46.837Z,18.42
2023-05-23T10:10:14.143Z,20.85
2023-05-23T10:12:27.122Z,19.08
2023-05-23T10:13:53.412Z,18.92
2023-05-23T10:15:18.153Z,20.85
2023-05-23T10:17:00.864Z,19.30
2023-05-23T10:18:29.070Z,19.10
2023-05-23T10:20:02.861Z,20.17
2023-05-23T10:21:33.913Z,20.63
2023-05-23T10:22:57.866Z,21.13
2023-05-23T10:24:21.462Z,21.55
2023-05-23T10:25:46.025Z,20.25
2023-05-23T10:27:11.867Z,19.50
2023-05-23T10:28:43.428Z,18.27
2023-05-23T10:30:06.841Z,19.02
2023-05-23T10:31:40.889Z,17.05
2023-05-23T10:33:17.774Z,18.42
2023-05-23T10:34:48.882Z,17.17
2023-05-23T10:36:16.220Z,17.85
2023-05-23T10:37:44.385Z,18.67
2023-05-23T10:39:14.688Z,17.70
2023-05-23T10:40:49.955Z,18.17
2023-05-23T10:42:18.448Z,16.77
2023-05-23T10:43:50.462Z,17.25
2023-05-23T10:45:20.508Z,17.08
2023-05-23T10:46:58.288Z,16.23
2023-05-23T10:48:25.148Z,18.83
2023-05-23T10:50:16.285Z,17.30
2023-05-23T10:51:40.685Z,15.82
2023-05-23T10:53:56.249Z,17.60
2023-05-23T10:55:19.214Z,17.05
2023-05-23T10:56:41.682Z,15.48
2023-05-23T10:58:17.354Z,15.07
2023-05-23T10:59:43.490Z,15.38
2023-05-23T11:01:08.185Z,13.85
2023-05-23T11:02:31.174Z,13.38
2023-05-23T11:03:56.224Z,10.45
2023-05-23T11:05:24.681Z,12.15
2023-05-23T11:06:47.820Z,12.43
2023-05-23T11:08:13.864Z,11.35
2023-05-23T11:09:36.307Z,11.88
2023-05-23T11:11:01.622Z,11.48
2023-05-23T11:12:39.070Z,11.05
2023-05-23T11:14:04.385Z,11.18
2023-05-23T11:15:26.843Z,10.55
2023-05-23T11:16:54.421Z,11.55
2023-05-23T11:18:25.852Z,11.38
2023-05-23T11:20:08.922Z,10.53
2023-05-23T11:21:33.239Z,10.30
2023-05-23T11:23:00.069Z,9.98
2023-05-23T11:24:22.805Z,9.95
2023-05-23T11:26:16.234Z,9.68
2023-05-23T11:27:57.152Z,9.00
2023-05-23T11:29:21.723Z,8.30
2023-05-23T11:30:44.042Z,8.40
2023-05-23T11:34:17.193Z,8.13
2023-05-23T11:35:39.723Z,8.13
2023-05-23T11:37:03.709Z,7.85
2023-05-23T11:38:27.019Z,7.63
2023-05-23T11:42:48.378Z,8.05
2023-05-23T11:44:14.541Z,7.28
2023-05-23T11:48:36.440Z,7.20
2023-05-23T11:50:03.222Z,7.28
2023-05-23T11:51:24.280Z,7.00
2023-05-23T11:52:52.239Z,7.07
2023-05-23T11:54:14.638Z,6.93
2023-05-23T11:55:40.282Z,8.23
2023-05-23T11:57:03.796Z,7.22
2023-05-23T11:58:31.393Z,7.35
2023-05-23T11:59:54.203Z,7.18
2023-05-23T12:01:44.970Z,7.93
2023-05-23T12:03:11.955Z,7.03
2023-05-23T12:04:39.095Z,7.57
2023-05-23T12:06:03.693Z,7.18
2023-05-23T12:09:15.958Z,6.70
2023-05-23T12:10:38.127Z,7.65
2023-05-23T12:12:05.146Z,7.78
2023-05-23T12:13:28.227Z,8.55
2023-05-23T12:14:56.989Z,7.43
2023-05-23T12:16:19.808Z,6.97
2023-05-23T12:17:46.685Z,7.25
2023-05-23T12:19:09.225Z,6.75
2023-05-23T12:20:35.208Z,7.45
2023-05-23T12:21:57.907Z,7.47
2023-05-23T12:25:30.290Z,8.63
2023-05-23T12:30:47.277Z,7.57
2023-05-23T12:32:09.993Z,7.85
2023-05-23T12:36:49.448Z,8.68
2023-05-23T12:38:20.278Z,8.35
2023-05-23T12:39:51.579Z,7.43
2023-05-23T12:41:21.290Z,7.90
2023-05-23T12:42:52.935Z,7.05
2023-05-23T12:44:19.887Z,8.32
2023-05-23T12:45:42.574Z,8.07
2023-05-23T12:47:05.369Z,8.05
2023-05-23T12:48:27.743Z,8.20
2023-05-23T12:49:51.544Z,8.77
2023-05-23T12:51:20.690Z,7.40
2023-05-23T12:54:19.772Z,6.72
2023-05-23T12:55:42.337Z,6.68
2023-05-23T12:57:06.385Z,6.90
2023-05-23T12:58:31.106Z,8.15
2023-05-23T13:00:02.560Z,7.53
2023-05-23T13:03:32.408Z,7.15
2023-05-23T13:04:54.755Z,7.78
2023-05-23T13:06:17.175Z,7.35
2023-05-23T13:07:41.490Z,7.07
2023-05-23T13:09:06.200Z,8.02
2023-05-23T13:10:31.815Z,8.38
2023-05-23T13:11:56.485Z,7.05
2023-05-23T13:13:24.011Z,7.60
2023-05-23T13:14:50.010Z,7.75
2023-05-23T13:16:12.799Z,7.95
2023-05-23T13:17:35.215Z,8.32
2023-05-23T13:18:57.923Z,7.40
2023-05-23T13:20:22.621Z,7.15
2023-05-23T13:21:47.332Z,7.70
2023-05-23T13:23:15.015Z,7.38
2023-05-23T13:24:38.102Z,8.13
2023-05-23T13:26:02.461Z,8.00
2023-05-23T13:27:27.001Z,8.05
2023-05-23T13:28:51.286Z,7.90
2023-05-23T13:30:14.539Z,8.57
2023-05-23T13:31:37.549Z,7.88
2023-05-23T13:33:00.478Z,7.75
2023-05-23T13:34:22.708Z,7.85
2023-05-23T13:35:57.457Z,7.57
2023-05-23T13:37:40.187Z,8.35
2023-05-23T13:39:24.341Z,8.75
2023-05-23T13:41:41.096Z,9.20
2023-05-23T13:43:13.361Z,8.00
2023-05-23T13:44:55.090Z,8.13
2023-05-23T13:46:23.665Z,10.33
2023-05-23T13:47:57.018Z,8.48
2023-05-23T13:50:01.806Z,8.02
2023-05-23T13:57:30.437Z,7.90
2023-05-23T14:28:15.772Z,8.48
2023-05-23T14:43:38.795Z,8.50
2023-05-23T14:45:28.638Z,9.80
2023-05-23T14:51:43.024Z,8.40
2023-05-23T14:53:53.564Z,7.80
2023-05-23T14:55:36.596Z,7.35
2023-05-23T14:57:07.011Z,8.13
2023-05-23T14:58:31.167Z,8.13
2023-05-23T14:59:54.050Z,7.60
2023-05-23T15:01:19.659Z,7.90
2023-05-23T15:02:51.556Z,8.65
2023-05-23T15:04:14.654Z,9.00
2023-05-23T15:07:00.142Z,9.05
2023-05-23T15:08:14.448Z,8.65
2023-05-23T15:10:06.719Z,9.48
2023-05-23T15:12:05.348Z,9.18
2023-05-23T15:13:47.726Z,8.93
2023-05-23T15:17:30.965Z,9.50
2023-05-23T15:18:57.818Z,8.60
2023-05-23T15:20:21.052Z,9.05
2023-05-23T15:21:58.418Z,9.43
2023-05-23T15:23:41.954Z,8.30
2023-05-23T15:25:49.048Z,8.55
2023-05-23T15:28:17.980Z,8.70
2023-05-23T15:29:42.350Z,8.02
2023-05-23T15:31:12.380Z,7.95
2023-05-23T15:33:04.527Z,8.10
2023-05-23T15:34:38.187Z,8.15
2023-05-23T15:36:01.398Z,8.68
2023-05-23T15:37:31.175Z,8.10
2023-05-23T15:39:47.712Z,8.07
2023-05-23T16:36:22.481Z,8.45
2023-05-23T16:38:47.072Z,8.63
2023-05-23T16:41:34.162Z,8.77
2023-05-23T16:46:25.240Z,8.65
2023-05-23T16:48:03.632Z,8.45
2023-05-23T16:50:20.143Z,8.40
2023-05-23T16:54:16.867Z,9.43
2023-05-23T16:55:56.061Z,9.93
2023-05-23T16:58:20.930Z,8.27
2023-05-23T17:01:34.460Z,8.43
2023-05-23T17:03:21.634Z,9.27
2023-05-23T17:06:09.539Z,9.93
2023-05-23T17:07:41.644Z,9.07
2023-05-23T17:09:07.581Z,9.27
2023-05-23T17:13:16.933Z,9.35
2023-05-23T17:14:25.760Z,8.05
2023-05-23T17:16:00.868Z,8.57
2023-05-23T17:21:22.521Z,9.05
2023-05-23T17:22:52.370Z,8.70
2023-05-23T17:24:36.784Z,10.40
2023-05-23T17:26:50.320Z,9.23
2023-05-23T17:31:10.441Z,10.05
2023-05-23T17:32:47.929Z,9.52
2023-05-23T17:34:55.076Z,8.88
2023-05-23T17:41:31.111Z,8.75
2023-05-23T17:45:31.854Z,8.70
2023-05-23T17:47:01.088Z,8.20
2023-05-23T17:50:49.917Z,9.70
2023-05-23T17:54:26.837Z,11.32
2023-05-23T17:56:12.585Z,10.00
2023-05-23T18:03:57.331Z,10.23
2023-05-23T18:05:53.796Z,10.35
2023-05-23T18:10:39.631Z,9.82
2023-05-23T18:12:07.178Z,10.35
2023-05-23T18:15:17.552Z,11.40
2023-05-23T18:20:20.533Z,9.77
2023-05-23T18:22:39.368Z,9.85
2023-05-23T18:26:02.084Z,11.13
2023-05-23T18:27:27.652Z,11.10
2023-05-23T18:29:06.112Z,10.05
2023-05-23T18:30:31.507Z,10.68
2023-05-23T18:31:56.548Z,11.20
2023-05-23T18:37:59.043Z,12.60
2023-05-23T18:39:53.136Z,11.82
2023-05-23T18:44:10.849Z,11.73
2023-05-23T18:51:36.456Z,13.60
2023-05-23T18:57:54.979Z,11.15
2023-05-23T18:59:28.576Z,10.85
2023-05-23T19:01:31.819Z,11.60
2023-05-23T19:03:03.188Z,11.52
2023-05-23T19:04:25.851Z,10.95
2023-05-23T19:05:49.392Z,10.98
2023-05-23T19:07:11.688Z,11.18
2023-05-23T19:08:36.096Z,11.85
2023-05-23T19:09:58.427Z,11.15
2023-05-23T19:12:08.045Z,11.35
2023-05-23T19:13:34.815Z,11.00
2023-05-23T19:14:57.192Z,10.60
2023-05-23T19:16:33.036Z,10.80
2023-05-23T19:18:08.130Z,10.90
2023-05-23T19:19:34.712Z,11.23
2023-05-23T19:21:31.108Z,11.27
2023-05-23T19:23:00.943Z,11.00
2023-05-23T19:24:23.867Z,10.98
2023-05-23T19:25:52.976Z,11.13
2023-05-23T19:27:16.611Z,11.15
2023-05-23T19:28:45.829Z,10.65
2023-05-23T19:30:11.952Z,12.90
2023-05-23T19:32:01.879Z,10.70
2023-05-23T19:33:31.876Z,10.80
2023-05-23T19:34:57.784Z,10.70
2023-05-23T19:36:23.334Z,10.75
2023-05-23T19:37:47.913Z,9.73
2023-05-23T19:39:12.683Z,9.88
2023-05-23T19:40:35.265Z,10.55
2023-05-23T19:42:05.375Z,10.35
2023-05-23T19:43:37.533Z,11.43
2023-05-23T19:45:04.410Z,10.30
2023-05-23T19:46:53.143Z,10.27
2023-05-23T19:48:19.676Z,10.32
2023-05-23T19:49:43.935Z,10.18
2023-05-23T19:51:07.973Z,10.43
2023-05-23T19:53:00.418Z,10.68
2023-05-23T19:54:39.777Z,10.15
2023-05-23T19:56:11.177Z,9.85
2023-05-23T19:57:52.651Z,10.27
2023-05-23T19:59:31.440Z,10.55
2023-05-23T20:01:19.370Z,10.90
2023-05-23T20:02:48.855Z,10.80
2023-05-23T20:04:18.581Z,10.95
2023-05-23T20:05:41.192Z,11.00
2023-05-23T20:07:41.930Z,10.30
2023-05-23T20:09:07.827Z,12.15
2023-05-23T20:10:39.455Z,10.98
2023-05-23T20:23:50.746Z,11.35
2023-05-23T20:25:27.155Z,11.50
2023-05-23T20:26:52.354Z,12.23
2023-05-23T20:30:08.838Z,11.73
2023-05-23T20:31:48.571Z,12.43
2023-05-23T20:33:28.159Z,12.48
2023-05-23T20:36:33.212Z,12.30
2023-05-23T21:49:20.001Z,15.25
2023-05-23T21:50:42.910Z,16.17
2023-05-23T21:52:35.965Z,17.85
2023-05-23T21:54:28.719Z,16.48
2023-05-23T21:55:50.350Z,17.33
2023-05-23T21:57:15.132Z,17.13
2023-05-23T21:58:39.814Z,16.80
2023-05-23T22:00:00.927Z,16.63
2023-05-23T22:01:23.156Z,18.42
2023-05-23T22:05:52.366Z,16.50
2023-05-23T22:07:15.014Z,17.67
2023-05-23T22:08:40.614Z,18.95
2023-05-23T22:10:03.215Z,17.63
2023-05-23T22:11:24.554Z,17.55
2023-05-23T22:15:41.697Z,17.17
2023-05-23T22:17:08.624Z,16.67
2023-05-23T22:20:18.645Z,18.25
2023-05-23T22:24:11.434Z,16.73
2023-05-23T22:25:48.967Z,16.10
2023-05-23T22:27:40.628Z,16.85
2023-05-23T22:29:02.327Z,16.65
2023-05-23T22:30:30.541Z,17.30
2023-05-23T22:31:52.763Z,16.75
2023-05-23T22:33:21.058Z,16.30
2023-05-23T22:35:23.836Z,17.25
2023-05-23T22:37:18.103Z,17.48
2023-05-23T22:38:39.119Z,18.85
2023-05-23T22:40:34.650Z,19.07
2023-05-23T22:43:11.832Z,17.20
2023-05-23T22:44:34.639Z,15.45
2023-05-23T22:45:57.234Z,15.23
2023-05-23T22:47:55.462Z,14.13
2023-05-23T22:49:45.801Z,13.27
2023-05-23T22:51:48.786Z,12.93
2023-05-23T22:53:16.808Z,13.05
2023-05-23T22:54:39.051Z,13.32
2023-05-23T22:56:13.704Z,12.95
2023-05-23T22:57:51.384Z,11.52
2023-05-23T22:59:13.890Z,11.48
2023-05-23T23:00:35.899Z,11.90
2023-05-23T23:03:19.371Z,12.15
2023-05-23T23:04:41.885Z,12.00
2023-05-23T23:06:06.283Z,11.38
2023-05-23T23:07:29.236Z,11.23
2023-05-23T23:08:52.007Z,11.90
2023-05-23T23:10:14.446Z,11.30
2023-05-23T23:11:38.626Z,12.20
2023-05-23T23:13:00.957Z,11.20
2023-05-23T23:14:22.437Z,11.30
2023-05-23T23:15:45.475Z,11.70
2023-05-23T23:17:07.695Z,11.05
2023-05-23T23:18:29.816Z,11.02
2023-05-23T23:19:55.803Z,11.43
2023-05-23T23:21:18.286Z,12.02
2023-05-23T23:22:40.183Z,11.35
2023-05-23T23:25:24.672Z,11.63
2023-05-23T23:29:39.637Z,13.20
2023-05-23T23:31:01.921Z,13.73
2023-05-23T23:32:23.736Z,13.30
2023-05-23T23:33:46.083Z,12.52
2023-05-23T23:35:07.876Z,13.23
2023-05-23T23:36:32.572Z,12.77
2023-05-23T23:37:53.982Z,13.55
2023-05-23T23:39:16.444Z,13.00
2023-05-23T23:40:42.553Z,12.32
2023-05-23T23:42:08.764Z,12.45
2023-05-23T23:43:34.100Z,12.93
2023-05-23T23:44:55.870Z,11.52
2023-05-23T23:46:19.382Z,12.15
2023-05-23T23:47:42.835Z,13.00
2023-05-23T23:49:04.935Z,11.98
2023-05-23T23:50:27.734Z,13.75
2023-05-23T23:51:50.205Z,11.93
2023-05-23T23:55:45.257Z,11.63
2023-05-23T23:57:14.030Z,11.20
2023-05-23T23:58:37.171Z,10.02
2023-05-23T23:59:58.984Z,9.70
